Time;durP1;ratioP1;P1;durP2;ratioP2;P2;SDS_P1;SDS_P2;PMS_P1;PMS_P2;Temp;Humidity;BMP_temperature;BMP_pressure;BME280_temperature;BME280_humidity;BME280_pressure;Samples;Min_cycle;Max_cycle;Signal;HPM_P1;HPM_P2
2021/09/20 00:06:24;;;;;;;3.22;1.92;;;24.00;47.70;;;;;;31245484;28;20074;-55
2021/09/20 00:21:26;;;;;;;2.30;1.90;;;24.00;47.90;;;;;;31244680;28;20078;-55
2021/09/20 00:36:28;;;;;;;2.10;1.38;;;24.00;47.70;;;;;;31264163;28;20149;-56
2021/09/20 00:51:30;;;;;;;2.30;0.90;;;24.00;47.60;;;;;;31264917;28;20130;-46
2021/09/20 01:06:32;;;;;;;1.40;1.00;;;23.90;47.30;;;;;;31267033;28;20092;-53
2021/09/20 01:21:35;;;;;;;0.68;0.68;;;23.90;47.20;;;;;;31268011;28;20064;-51
2021/09/20 01:36:37;;;;;;;1.20;1.05;;;23.80;47.10;;;;;;31261689;28;20062;-55
2021/09/20 01:51:39;;;;;;;2.00;1.00;;;23.80;46.80;;;;;;31260973;28;20057;-45
2021/09/20 02:06:41;;;;;;;0.98;0.90;;;23.70;46.60;;;;;;31262101;28;20045;-49
2021/09/20 02:21:43;;;;;;;1.33;0.80;;;23.70;46.10;;;;;;31257658;28;20105;-55
2021/09/20 02:36:45;;;;;;;0.85;0.60;;;23.70;45.70;;;;;;31257610;28;20133;-48
2021/09/20 02:51:47;;;;;;;1.77;0.70;;;23.60;45.60;;;;;;31256907;28;20066;-48
2021/09/20 03:06:49;;;;;;;0.30;0.30;;;23.70;45.20;;;;;;31251780;28;20188;-45
2021/09/20 03:21:51;;;;;;;0.82;0.50;;;23.60;45.10;;;;;;31251224;28;20130;-46
2021/09/20 03:36:53;;;;;;;0.43;0.40;;;23.60;45.00;;;;;;31247170;28;20042;-54
2021/09/20 03:51:55;;;;;;;1.13;0.60;;;23.60;44.70;;;;;;31244603;28;20053;-56
2021/09/20 04:06:59;;;;;;;1.60;0.50;;;23.50;44.50;;;;;;31261466;28;20069;-54
2021/09/20 04:22:03;;;;;;;5.03;0.77;;;23.50;44.40;;;;;;31269655;28;20061;-53
2021/09/20 04:37:05;;;;;;;6.20;2.20;;;23.50;44.60;;;;;;31269759;28;20069;-56
2021/09/20 04:52:07;;;;;;;4.38;1.60;;;23.50;44.80;;;;;;31266843;28;20077;-54
2021/09/20 05:07:09;;;;;;;2.00;1.15;;;23.50;44.60;;;;;;31268640;28;20049;-54
2021/09/20 05:22:11;;;;;;;2.65;1.15;;;23.40;44.70;;;;;;31267189;28;20061;-52
2021/09/20 05:37:13;;;;;;;19.98;8.07;;;23.40;44.30;;;;;;31259630;28;20084;-52
2021/09/20 05:52:15;;;;;;;14.80;4.90;;;22.20;47.90;;;;;;31252757;28;20068;-60
2021/09/20 06:07:17;;;;;;;27.83;17.95;;;22.50;46.90;;;;;;31264899;28;20407;-49
2021/09/20 06:22:19;;;;;;;13.48;9.35;;;22.30;46.60;;;;;;31263036;28;20097;-47
2021/09/20 06:37:21;;;;;;;10.77;7.10;;;22.20;47.30;;;;;;31262119;28;20050;-49
2021/09/20 06:52:23;;;;;;;42.90;35.83;;;22.70;47.80;;;;;;31259591;28;20077;-53
2021/09/20 07:07:25;;;;;;;21.40;11.32;;;22.60;48.50;;;;;;31257594;28;20119;-57
2021/09/20 07:22:27;;;;;;;8.95;7.07;;;23.20;47.50;;;;;;31256204;28;20121;-53
2021/09/20 07:37:29;;;;;;;4.28;3.63;;;23.10;48.00;;;;;;31251768;28;20128;-57
2021/09/20 07:52:32;;;;;;;3.90;3.25;;;23.30;47.70;;;;;;31243052;28;20130;-55
2021/09/20 08:07:34;;;;;;;4.38;3.38;;;23.30;48.50;;;;;;31259394;28;20041;-56
2021/09/20 08:22:37;;;;;;;4.63;1.85;;;23.20;47.60;;;;;;31243570;28;20046;-55
2021/09/20 08:37:39;;;;;;;4.82;1.85;;;23.40;47.90;;;;;;31242750;28;20067;-57
2021/09/20 08:52:42;;;;;;;13.23;10.73;;;23.50;48.40;;;;;;31254811;28;20050;-55
2021/09/20 09:07:47;;;;;;;5.07;4.32;;;23.40;50.10;;;;;;31261502;28;20049;-55
2021/09/20 09:22:53;;;;;;;7.57;6.78;;;23.60;49.10;;;;;;31260534;28;20072;-56
2021/09/20 09:38:01;;;;;;;20.08;15.10;;;23.50;49.60;;;;;;31259057;28;20137;-58
2021/09/20 09:53:03;;;;;;;17.48;9.50;;;23.50;49.40;;;;;;31257503;28;20049;-55
2021/09/20 10:08:12;;;;;;;5.10;4.25;;;23.50;50.90;;;;;;31255279;28;20133;-56
2021/09/20 10:23:14;;;;;;;11.67;8.70;;;23.50;48.60;;;;;;31253677;28;20124;-57
2021/09/20 10:38:29;;;;;;;17.27;13.82;;;23.60;49.60;;;;;;31251532;28;20145;-57
2021/09/20 10:53:34;;;;;;;8.90;6.57;;;23.50;53.00;;;;;;31250294;28;20379;-58
2021/09/20 11:08:40;;;;;;;10.73;6.90;;;23.50;50.00;;;;;;31248586;28;20045;-58
2021/09/20 11:23:44;;;;;;;8.35;4.28;;;23.50;52.60;;;;;;31247779;28;20046;-58
2021/09/20 11:38:47;;;;;;;5.55;3.63;;;23.40;50.50;;;;;;31246039;28;20129;-57
2021/09/20 11:53:49;;;;;;;7.10;3.30;;;23.40;52.50;;;;;;31246032;28;20072;-60
2021/09/20 12:08:51;;;;;;;9.93;3.33;;;23.60;52.40;;;;;;31245296;28;20071;-60
2021/09/20 12:23:53;;;;;;;6.05;3.35;;;23.60;51.90;;;;;;31252714;28;20076;-56
2021/09/20 12:39:07;;;;;;;5.43;3.00;;;23.50;51.70;;;;;;31265220;28;20084;-56
2021/09/20 12:54:28;;;;;;;7.57;2.78;;;23.50;51.50;;;;;;31276114;28;20101;-57
2021/09/20 13:09:31;;;;;;;7.43;3.20;;;23.60;51.40;;;;;;31262441;28;20133;-58
2021/09/20 13:24:35;;;;;;;5.82;3.05;;;23.50;52.30;;;;;;31267344;28;20049;-55
2021/09/20 13:39:37;;;;;;;7.68;3.30;;;23.60;52.00;;;;;;31265622;28;20105;-47
2021/09/20 13:54:39;;;;;;;9.50;3.50;;;23.70;50.80;;;;;;31262795;28;20069;-59
2021/09/20 14:09:41;;;;;;;17.27;3.05;;;23.70;52.20;;;;;;31258656;28;20077;-56
2021/09/20 14:24:44;;;;;;;9.05;2.80;;;23.40;50.00;;;;;;31262070;28;20038;-57
2021/09/20 14:39:46;;;;;;;4.97;3.03;;;23.50;50.70;;;;;;31211923;28;20056;-50
2021/09/20 14:54:48;;;;;;;10.63;2.80;;;23.80;50.60;;;;;;31250751;28;20121;-56
2021/09/20 15:09:50;;;;;;;34.67;9.38;;;23.60;51.50;;;;;;31136749;28;20066;-49
2021/09/20 15:24:52;;;;;;;41.50;8.32;;;23.50;54.20;;;;;;31134467;28;20085;-56
2021/09/20 15:39:54;;;;;;;38.42;8.38;;;23.60;57.20;;;;;;31217709;28;20046;-57
2021/09/20 15:54:56;;;;;;;18.23;6.72;;;24.10;54.70;;;;;;31257976;28;20057;-51
2021/09/20 16:10:00;;;;;;;18.88;6.18;;;24.40;53.10;;;;;;30909290;28;9999974;-55
2021/09/20 16:25:03;;;;;;;19.02;7.38;;;23.90;54.40;;;;;;31269316;28;20084;-57
2021/09/20 16:40:08;;;;;;;16.30;7.35;;;24.00;56.20;;;;;;31261305;28;20066;-47
2021/09/20 16:55:11;;;;;;;15.10;6.35;;;24.00;54.60;;;;;;31258348;28;20045;-51
2021/09/20 17:10:14;;;;;;;16.23;5.53;;;24.00;54.40;;;;;;31240892;28;20373;-49
2021/09/20 17:25:17;;;;;;;23.42;5.78;;;24.00;54.40;;;;;;31260854;28;20129;-56
2021/09/20 17:40:20;;;;;;;15.13;4.88;;;24.00;56.60;;;;;;31249796;28;20110;-59
2021/09/20 17:55:23;;;;;;;18.58;5.38;;;23.90;58.50;;;;;;31245939;28;20053;-56
2021/09/20 18:10:25;;;;;;;7.30;3.92;;;23.80;59.20;;;;;;31245344;28;20101;-55
2021/09/20 18:25:27;;;;;;;13.48;5.03;;;23.80;57.90;;;;;;31245457;28;20038;-54
2021/09/20 18:40:29;;;;;;;11.07;4.28;;;23.90;58.20;;;;;;31246369;28;20057;-50
2021/09/20 18:55:31;;;;;;;5.53;3.40;;;23.90;57.90;;;;;;31248627;28;20045;-58
2021/09/20 19:10:35;;;;;;;30.27;22.38;;;23.90;57.30;;;;;;31254279;28;20057;-48
2021/09/20 19:25:38;;;;;;;17.83;12.88;;;24.00;56.60;;;;;;31255259;28;20101;-44
2021/09/20 19:40:40;;;;;;;11.05;8.35;;;24.30;55.80;;;;;;31205003;28;20058;-46
2021/09/20 19:55:43;;;;;;;8.25;5.45;;;24.30;55.50;;;;;;31129680;28;20046;-52
2021/09/20 20:10:45;;;;;;;18.17;13.00;;;24.30;55.90;;;;;;31130205;28;20050;-46
2021/09/20 20:25:47;;;;;;;10.48;8.45;;;24.40;55.60;;;;;;31161453;28;20391;-46
2021/09/20 20:40:50;;;;;;;5.53;4.75;;;24.40;55.40;;;;;;31248339;28;20061;-46
2021/09/20 20:55:52;;;;;;;4.15;3.10;;;24.40;55.30;;;;;;31274898;28;20057;-46
2021/09/20 21:10:54;;;;;;;7.85;3.90;;;24.40;55.20;;;;;;31272398;28;20105;-48
2021/09/20 21:25:56;;;;;;;20.17;15.07;;;24.40;55.00;;;;;;31267320;28;20045;-54
2021/09/20 21:40:58;;;;;;;12.30;9.55;;;24.20;55.00;;;;;;31266180;28;20077;-50
2021/09/20 21:56:00;;;;;;;16.73;6.38;;;24.30;54.80;;;;;;31262515;28;20097;-48
2021/09/20 22:11:03;;;;;;;6.88;3.67;;;24.20;54.60;;;;;;31264273;28;20126;-46
2021/09/20 22:26:05;;;;;;;4.25;2.90;;;24.20;54.20;;;;;;31262904;28;20060;-48
2021/09/20 22:41:07;;;;;;;1.75;1.63;;;24.20;53.70;;;;;;31258780;28;20049;-48
2021/09/20 22:56:09;;;;;;;2.17;1.42;;;24.20;53.40;;;;;;31260422;28;20054;-47
2021/09/20 23:11:11;;;;;;;3.78;1.83;;;24.10;53.30;;;;;;31258140;28;20070;-51
2021/09/20 23:26:13;;;;;;;1.08;0.93;;;24.10;52.80;;;;;;31257469;28;20057;-49
2021/09/20 23:41:15;;;;;;;1.20;1.10;;;24.00;52.60;;;;;;31255427;28;20081;-49
2021/09/20 23:56:18;;;;;;;0.65;0.55;;;24.00;52.10;;;;;;31255019;28;20069;-46
